Time;durP1;ratioP1;P1;durP2;ratioP2;P2;SDS_P1;SDS_P2;PMS_P1;PMS_P2;Temp;Humidity;BMP_temperature;BMP_pressure;BME280_temperature;BME280_humidity;BME280_pressure;Samples;Min_cycle;Max_cycle;Signal;HPM_P1;HPM_P2
2022/09/27 00:01:29;;;;;;;6.07;5.32;;;;;;;;;;4317864;33;20542;-85
2022/09/27 00:03:56;;;;;;;6.60;5.90;;;;;;;;;;4317867;33;20608;-85
2022/09/27 00:06:25;;;;;;;8.10;5.55;;;;;;;;;;4317814;33;20303;-84
2022/09/27 00:08:53;;;;;;;8.48;6.37;;;;;;;;;;4317813;33;20557;-85
2022/09/27 00:11:25;;;;;;;6.53;5.68;;;;;;;;;;4317711;33;20580;-84
2022/09/27 00:13:54;;;;;;;9.85;6.12;;;;;;;;;;4317801;33;20624;-85
2022/09/27 00:16:23;;;;;;;9.00;6.15;;;;;;;;;;4317699;33;20679;-92
2022/09/27 00:18:51;;;;;;;11.43;6.87;;;;;;;;;;4317880;33;20564;-83
2022/09/27 00:21:19;;;;;;;7.40;5.93;;;;;;;;;;4317822;33;20588;-88
2022/09/27 00:23:46;;;;;;;6.78;6.12;;;;;;;;;;4317666;33;20515;-84
2022/09/27 00:26:14;;;;;;;10.18;6.28;;;;;;;;;;4317716;33;20346;-87
2022/09/27 00:28:41;;;;;;;8.32;7.05;;;;;;;;;;4317622;33;20574;-83
2022/09/27 00:31:21;;;;;;;9.48;7.40;;;;;;;;;;4317614;33;20668;-88
2022/09/27 00:33:52;;;;;;;9.48;7.53;;;;;;;;;;4317913;33;20293;-85
2022/09/27 00:36:20;;;;;;;7.15;6.45;;;;;;;;;;4317832;33;20620;-87
2022/09/27 00:38:48;;;;;;;10.20;6.65;;;;;;;;;;4317500;33;20549;-84
2022/09/27 00:41:17;;;;;;;7.28;6.57;;;;;;;;;;4317751;33;20670;-90
2022/09/27 00:43:48;;;;;;;8.55;5.80;;;;;;;;;;4317534;33;20621;-84
2022/09/27 00:46:23;;;;;;;7.32;5.47;;;;;;;;;;4317965;33;20632;-88
2022/09/27 00:49:04;;;;;;;10.30;6.43;;;;;;;;;;4317835;33;20560;-84
2022/09/27 00:51:34;;;;;;;14.65;7.00;;;;;;;;;;4317729;33;20651;-84
2022/09/27 00:54:02;;;;;;;9.35;7.40;;;;;;;;;;4317559;33;20251;-84
2022/09/27 00:56:32;;;;;;;7.75;6.43;;;;;;;;;;4317719;33;20577;-84
2022/09/27 00:59:03;;;;;;;7.15;6.45;;;;;;;;;;4317920;33;20662;-84
2022/09/27 01:01:31;;;;;;;8.05;6.78;;;;;;;;;;4317701;33;20734;-83
2022/09/27 01:04:04;;;;;;;8.43;5.85;;;;;;;;;;4317772;33;20295;-83
2022/09/27 01:06:31;;;;;;;7.78;6.90;;;;;;;;;;4317538;33;20298;-84
2022/09/27 01:08:59;;;;;;;7.85;7.05;;;;;;;;;;4317623;33;20537;-84
2022/09/27 01:11:38;;;;;;;8.38;6.75;;;;;;;;;;4320296;33;20674;-84
2022/09/27 01:14:29;;;;;;;9.55;7.40;;;;;;;;;;4320439;33;20610;-85
2022/09/27 01:17:07;;;;;;;12.30;7.40;;;;;;;;;;4320322;33;20550;-85
2022/09/27 01:20:14;;;;;;;7.18;6.45;;;;;;;;;;4320153;33;20617;-84
2022/09/27 01:22:53;;;;;;;7.87;7.00;;;;;;;;;;4277904;33;20655;-83
2022/09/27 01:25:43;;;;;;;9.60;7.05;;;;;;;;;;4320744;33;20618;-83
2022/09/27 01:28:25;;;;;;;8.23;7.12;;;;;;;;;;4320119;33;20315;-83
2022/09/27 01:31:04;;;;;;;8.75;7.15;;;;;;;;;;4320094;33;20569;-83
2022/09/27 01:33:44;;;;;;;7.22;6.45;;;;;;;;;;4320305;33;20616;-83
2022/09/27 01:36:27;;;;;;;8.43;6.78;;;;;;;;;;4320036;33;20659;-85
2022/09/27 01:39:08;;;;;;;8.15;7.30;;;;;;;;;;4320603;33;20655;-85
2022/09/27 01:41:38;;;;;;;10.23;7.05;;;;;;;;;;4319820;33;20646;-83
2022/09/27 01:44:14;;;;;;;17.37;7.87;;;;;;;;;;4319745;33;20632;-85
2022/09/27 01:46:48;;;;;;;7.20;6.60;;;;;;;;;;4319420;33;20401;-83
2022/09/27 01:49:21;;;;;;;8.90;6.90;;;;;;;;;;4319555;33;20242;-85
2022/09/27 01:51:52;;;;;;;8.32;6.95;;;;;;;;;;4319556;33;20575;-82
2022/09/27 01:54:25;;;;;;;8.05;7.05;;;;;;;;;;4320095;33;20561;-85
2022/09/27 01:56:56;;;;;;;8.60;7.00;;;;;;;;;;4319269;33;20649;-88
2022/09/27 01:59:28;;;;;;;7.60;6.90;;;;;;;;;;4319470;33;20612;-91
2022/09/27 02:02:00;;;;;;;7.18;5.97;;;;;;;;;;4319411;33;20621;-83
2022/09/27 02:04:31;;;;;;;9.00;6.87;;;;;;;;;;4319529;33;20576;-83
2022/09/27 02:07:03;;;;;;;6.65;6.05;;;;;;;;;;4319516;33;20660;-84
2022/09/27 02:09:37;;;;;;;8.23;6.40;;;;;;;;;;4319586;33;20290;-84
2022/09/27 02:12:09;;;;;;;10.07;6.55;;;;;;;;;;4319180;33;20596;-85
2022/09/27 02:14:42;;;;;;;8.60;7.60;;;;;;;;;;4319441;33;20546;-91
2022/09/27 02:17:22;;;;;;;8.45;7.07;;;;;;;;;;4319193;33;20558;-84
2022/09/27 02:19:55;;;;;;;7.45;6.75;;;;;;;;;;4319438;33;20647;-85
2022/09/27 02:22:30;;;;;;;7.95;7.10;;;;;;;;;;4319054;33;20634;-89
2022/09/27 02:25:02;;;;;;;6.97;6.30;;;;;;;;;;4319602;33;20644;-85
2022/09/27 02:27:34;;;;;;;9.32;7.80;;;;;;;;;;4319133;33;20617;-86
2022/09/27 02:30:06;;;;;;;12.45;7.00;;;;;;;;;;4319084;33;20634;-84
2022/09/27 02:32:35;;;;;;;12.98;7.12;;;;;;;;;;4319059;33;20578;-83
2022/09/27 02:35:07;;;;;;;7.80;6.97;;;;;;;;;;4319000;33;20549;-84
2022/09/27 02:37:35;;;;;;;8.77;7.85;;;;;;;;;;4319351;33;20555;-85
2022/09/27 02:40:04;;;;;;;8.18;6.93;;;;;;;;;;4318706;33;20616;-84
2022/09/27 02:42:33;;;;;;;7.97;6.68;;;;;;;;;;4318947;33;20693;-84
2022/09/27 02:45:01;;;;;;;7.43;6.43;;;;;;;;;;4318765;33;20574;-84
2022/09/27 02:47:50;;;;;;;8.90;7.20;;;;;;;;;;4319392;33;20614;-84
2022/09/27 02:50:45;;;;;;;7.20;6.07;;;;;;;;;;4318747;33;20325;-84
2022/09/27 02:53:26;;;;;;;6.32;5.70;;;;;;;;;;4318609;33;20565;-85
2022/09/27 02:56:03;;;;;;;8.30;5.57;;;;;;;;;;4318813;33;20564;-90
2022/09/27 02:58:43;;;;;;;9.38;5.78;;;;;;;;;;4318646;33;20584;-85
2022/09/27 03:01:17;;;;;;;6.75;6.05;;;;;;;;;;4318544;33;20646;-84
2022/09/27 03:03:52;;;;;;;9.43;6.15;;;;;;;;;;4319014;33;20255;-85
2022/09/27 03:06:22;;;;;;;8.80;6.05;;;;;;;;;;4318499;33;20679;-84
2022/09/27 03:08:51;;;;;;;11.68;6.18;;;;;;;;;;4318804;33;20622;-84
2022/09/27 03:11:19;;;;;;;9.32;7.20;;;;;;;;;;4320740;33;20232;-84
2022/09/27 03:13:46;;;;;;;8.15;7.35;;;;;;;;;;4318479;33;20576;-86
2022/09/27 03:16:14;;;;;;;9.73;7.53;;;;;;;;;;4318159;33;20630;-85
2022/09/27 03:18:42;;;;;;;7.40;6.60;;;;;;;;;;4318385;33;20624;-84
2022/09/27 03:21:11;;;;;;;8.30;7.37;;;;;;;;;;4318244;33;20622;-84
2022/09/27 03:23:39;;;;;;;13.45;7.68;;;;;;;;;;4318649;33;20713;-84
2022/09/27 03:26:07;;;;;;;10.65;8.35;;;;;;;;;;4317929;33;20572;-84
2022/09/27 03:28:34;;;;;;;8.35;7.55;;;;;;;;;;4318029;33;20621;-85
2022/09/27 03:31:02;;;;;;;8.35;7.55;;;;;;;;;;4318030;33;20656;-83
2022/09/27 03:33:29;;;;;;;8.10;7.40;;;;;;;;;;4317830;33;20608;-84
2022/09/27 03:35:56;;;;;;;8.32;7.28;;;;;;;;;;4318042;33;20268;-84
2022/09/27 03:38:25;;;;;;;7.35;6.65;;;;;;;;;;4318049;33;20523;-83
2022/09/27 03:40:53;;;;;;;8.55;7.18;;;;;;;;;;4318068;33;20673;-91
2022/09/27 03:43:21;;;;;;;8.13;7.40;;;;;;;;;;4305000;33;20522;-85
2022/09/27 03:45:49;;;;;;;7.30;6.60;;;;;;;;;;4317732;33;20655;-84
2022/09/27 03:48:16;;;;;;;8.52;7.07;;;;;;;;;;4317741;33;20574;-88
2022/09/27 03:50:44;;;;;;;7.85;6.90;;;;;;;;;;4317740;33;20644;-84
2022/09/27 03:53:11;;;;;;;8.18;7.25;;;;;;;;;;4317561;33;20410;-84
2022/09/27 03:55:40;;;;;;;7.70;6.55;;;;;;;;;;4317568;33;20596;-84
2022/09/27 03:58:07;;;;;;;13.27;6.57;;;;;;;;;;4317928;33;20231;-89
2022/09/27 04:00:36;;;;;;;8.90;7.35;;;;;;;;;;4317592;33;20663;-84
2022/09/27 04:03:04;;;;;;;7.57;6.80;;;;;;;;;;4317724;33;20555;-84
2022/09/27 04:05:31;;;;;;;7.93;7.12;;;;;;;;;;4317555;33;20629;-84
2022/09/27 04:07:59;;;;;;;10.93;8.45;;;;;;;;;;4317607;33;20511;-85
2022/09/27 04:10:27;;;;;;;9.70;7.57;;;;;;;;;;4317364;33;20609;-84
2022/09/27 04:12:56;;;;;;;9.27;7.37;;;;;;;;;;4317384;33;20533;-92
2022/09/27 04:15:23;;;;;;;14.45;8.38;;;;;;;;;;4317475;33;20633;-88
2022/09/27 04:17:51;;;;;;;9.55;7.85;;;;;;;;;;4317539;33;20294;-84
2022/09/27 04:20:18;;;;;;;8.70;7.82;;;;;;;;;;4317412;33;20649;-86
2022/09/27 04:22:46;;;;;;;9.50;8.45;;;;;;;;;;4317371;33;20636;-84
2022/09/27 04:25:13;;;;;;;11.02;9.07;;;;;;;;;;4317297;33;20534;-81
2022/09/27 04:27:45;;;;;;;10.48;7.87;;;;;;;;;;4316845;33;20263;-79
2022/09/27 04:30:15;;;;;;;9.20;7.90;;;;;;;;;;4317152;33;20661;-79
2022/09/27 04:32:43;;;;;;;10.63;9.52;;;;;;;;;;4317472;33;20557;-82
2022/09/27 04:37:56;;;;;;;12.80;10.18;;;;;;;;;;4316881;33;20210;-82
2022/09/27 04:40:24;;;;;;;11.43;9.73;;;;;;;;;;4316561;33;20597;-81
2022/09/27 04:42:52;;;;;;;11.95;9.85;;;;;;;;;;4316786;33;20705;-82
2022/09/27 04:45:21;;;;;;;12.63;8.82;;;;;;;;;;4316482;33;20589;-81
2022/09/27 04:47:50;;;;;;;10.65;6.95;;;;;;;;;;4316634;33;20302;-81
2022/09/27 04:50:19;;;;;;;9.07;7.18;;;;;;;;;;4316827;33;20616;-83
2022/09/27 04:52:51;;;;;;;8.75;7.75;;;;;;;;;;4317142;33;20527;-83
2022/09/27 04:55:19;;;;;;;10.48;6.93;;;;;;;;;;4316668;33;20561;-82
2022/09/27 04:57:46;;;;;;;10.82;9.60;;;;;;;;;;4317261;33;20266;-82
2022/09/27 05:00:15;;;;;;;8.05;7.10;;;;;;;;;;4303608;33;20673;-82
2022/09/27 05:02:45;;;;;;;13.90;8.90;;;;;;;;;;4316944;33;20599;-82
2022/09/27 05:05:12;;;;;;;23.65;13.30;;;;;;;;;;4316553;33;20659;-82
2022/09/27 05:07:42;;;;;;;17.60;11.45;;;;;;;;;;4316414;33;20580;-82
2022/09/27 05:10:10;;;;;;;24.83;14.57;;;;;;;;;;4316854;33;20669;-84
2022/09/27 05:12:38;;;;;;;20.12;12.93;;;;;;;;;;4316621;33;20689;-82
2022/09/27 05:15:07;;;;;;;20.83;12.30;;;;;;;;;;4316698;33;20577;-81
2022/09/27 05:17:34;;;;;;;23.25;11.50;;;;;;;;;;4316841;33;20212;-80
2022/09/27 05:20:05;;;;;;;17.25;12.02;;;;;;;;;;4316422;33;20641;-82
2022/09/27 05:22:32;;;;;;;25.40;13.35;;;;;;;;;;4316287;33;20342;-80
2022/09/27 05:25:00;;;;;;;19.48;11.35;;;;;;;;;;4316780;33;20643;-83
2022/09/27 05:27:29;;;;;;;14.73;10.13;;;;;;;;;;4316130;33;20518;-81
2022/09/27 05:29:59;;;;;;;18.02;11.68;;;;;;;;;;4315696;33;20585;-81
2022/09/27 05:32:26;;;;;;;19.12;11.73;;;;;;;;;;4316182;33;20561;-82
2022/09/27 05:34:54;;;;;;;13.90;11.32;;;;;;;;;;4316300;33;20546;-82
2022/09/27 05:37:24;;;;;;;17.42;10.70;;;;;;;;;;4316108;33;20613;-82
2022/09/27 05:39:51;;;;;;;10.90;9.82;;;;;;;;;;4316284;33;20647;-82
2022/09/27 05:42:20;;;;;;;11.52;9.38;;;;;;;;;;4316588;33;20464;-83
2022/09/27 05:44:47;;;;;;;15.15;13.55;;;;;;;;;;4316213;33;20518;-84
2022/09/27 05:47:15;;;;;;;16.40;14.18;;;;;;;;;;4303658;33;20593;-84
2022/09/27 05:49:43;;;;;;;18.35;16.37;;;;;;;;;;4317086;33;20333;-84
2022/09/27 05:52:10;;;;;;;17.92;15.10;;;;;;;;;;4318564;33;20553;-83
2022/09/27 05:54:39;;;;;;;14.32;12.93;;;;;;;;;;4318415;33;20616;-88
2022/09/27 05:57:07;;;;;;;24.48;21.62;;;;;;;;;;4319524;33;20574;-88
2022/09/27 05:59:35;;;;;;;36.67;27.20;;;;;;;;;;4305518;33;20671;-89
2022/09/27 06:02:02;;;;;;;30.83;23.48;;;;;;;;;;4318839;33;20744;-84
2022/09/27 06:04:30;;;;;;;21.77;19.55;;;;;;;;;;4319258;33;20556;-86
2022/09/27 06:06:57;;;;;;;19.00;16.65;;;;;;;;;;4318980;33;20658;-82
2022/09/27 06:09:27;;;;;;;21.87;14.52;;;;;;;;;;4318975;33;20529;-88
2022/09/27 06:11:55;;;;;;;19.33;16.35;;;;;;;;;;4318869;33;20582;-87
2022/09/27 06:14:23;;;;;;;16.40;14.60;;;;;;;;;;4318823;33;20656;-81
2022/09/27 06:16:53;;;;;;;16.58;12.02;;;;;;;;;;4318252;33;20641;-89
2022/09/27 06:19:21;;;;;;;18.70;10.75;;;;;;;;;;4318782;33;20514;-82
2022/09/27 06:21:50;;;;;;;11.68;9.50;;;;;;;;;;4318006;33;20679;-89
2022/09/27 06:24:18;;;;;;;9.73;8.73;;;;;;;;;;4318634;33;20625;-87
2022/09/27 06:26:45;;;;;;;9.10;8.15;;;;;;;;;;4318614;33;20584;-88
2022/09/27 06:29:14;;;;;;;10.77;9.68;;;;;;;;;;4318532;33;20643;-88
2022/09/27 06:31:42;;;;;;;9.43;8.55;;;;;;;;;;4318201;33;20277;-88
2022/09/27 06:34:09;;;;;;;10.30;9.30;;;;;;;;;;4318303;33;20283;-83
2022/09/27 06:36:38;;;;;;;12.88;9.50;;;;;;;;;;4318457;33;20511;-80
2022/09/27 06:39:06;;;;;;;9.90;8.50;;;;;;;;;;4318708;33;20495;-85
2022/09/27 06:41:34;;;;;;;9.38;8.23;;;;;;;;;;4318290;33;20731;-83
2022/09/27 06:44:02;;;;;;;10.45;9.43;;;;;;;;;;4318518;33;20545;-87
2022/09/27 06:46:31;;;;;;;14.00;10.13;;;;;;;;;;4318195;33;20577;-86
2022/09/27 06:48:59;;;;;;;11.98;10.43;;;;;;;;;;4318179;33;20558;-88
2022/09/27 06:51:26;;;;;;;14.60;11.68;;;;;;;;;;4318331;33;20298;-89
2022/09/27 06:53:54;;;;;;;15.68;13.07;;;;;;;;;;4317980;33;20655;-87
2022/09/27 06:56:22;;;;;;;18.25;16.12;;;;;;;;;;4304656;33;20692;-88
2022/09/27 07:01:36;;;;;;;19.30;17.33;;;;;;;;;;4318396;33;20249;-88
2022/09/27 07:04:04;;;;;;;29.95;19.27;;;;;;;;;;4318099;33;20653;-89
2022/09/27 07:06:33;;;;;;;31.50;21.52;;;;;;;;;;4317606;33;20590;-81
2022/09/27 07:09:01;;;;;;;32.97;21.02;;;;;;;;;;4317739;33;20590;-90
2022/09/27 07:11:29;;;;;;;19.90;12.10;;;;;;;;;;4317801;33;20613;-84
2022/09/27 07:13:56;;;;;;;23.40;16.23;;;;;;;;;;4318160;33;20251;-80
2022/09/27 07:16:24;;;;;;;28.85;17.75;;;;;;;;;;4317548;33;20750;-89
2022/09/27 07:18:53;;;;;;;28.42;16.40;;;;;;;;;;4317009;33;20380;-84
2022/09/27 07:21:20;;;;;;;15.90;12.52;;;;;;;;;;4317696;33;20649;-84
2022/09/27 07:23:48;;;;;;;16.77;13.50;;;;;;;;;;4317786;33;20654;-87
2022/09/27 07:26:16;;;;;;;14.23;11.77;;;;;;;;;;4317598;33;20665;-84
2022/09/27 07:28:44;;;;;;;16.25;12.57;;;;;;;;;;4317215;33;20644;-85
2022/09/27 07:31:12;;;;;;;16.45;12.23;;;;;;;;;;4317400;33;20593;-85
2022/09/27 07:33:40;;;;;;;12.95;11.65;;;;;;;;;;4317621;33;20541;-85
2022/09/27 07:36:12;;;;;;;14.63;10.65;;;;;;;;;;4317302;33;20585;-88
2022/09/27 07:38:39;;;;;;;9.75;8.57;;;;;;;;;;4317361;33;20545;-85
2022/09/27 07:41:08;;;;;;;10.35;9.25;;;;;;;;;;4317244;33;20572;-88
2022/09/27 07:43:35;;;;;;;9.80;8.88;;;;;;;;;;4317443;33;20615;-85
2022/09/27 07:46:03;;;;;;;10.32;9.25;;;;;;;;;;4317293;33;20623;-85
2022/09/27 07:48:31;;;;;;;11.65;9.32;;;;;;;;;;4317946;33;20652;-85
2022/09/27 07:50:59;;;;;;;10.68;8.63;;;;;;;;;;4317123;33;20230;-86
2022/09/27 07:53:28;;;;;;;12.75;9.48;;;;;;;;;;4316975;33;20596;-86
2022/09/27 07:55:57;;;;;;;11.73;9.18;;;;;;;;;;4317099;33;20602;-84
2022/09/27 07:58:25;;;;;;;11.38;10.27;;;;;;;;;;4316986;33;20565;-85
2022/09/27 08:00:53;;;;;;;14.07;10.35;;;;;;;;;;4317292;33;20592;-84
2022/09/27 08:03:20;;;;;;;11.27;10.18;;;;;;;;;;4317193;33;20592;-84
2022/09/27 08:05:48;;;;;;;11.32;10.23;;;;;;;;;;4316701;33;20594;-85
2022/09/27 08:08:16;;;;;;;12.15;10.77;;;;;;;;;;4317346;33;20604;-84
2022/09/27 08:10:46;;;;;;;13.77;10.68;;;;;;;;;;4316781;33;20680;-86
2022/09/27 08:13:18;;;;;;;11.35;10.30;;;;;;;;;;4317067;33;20723;-84
2022/09/27 08:15:47;;;;;;;12.98;11.55;;;;;;;;;;4316920;33;20568;-85
2022/09/27 08:18:15;;;;;;;12.50;11.30;;;;;;;;;;4317015;33;20518;-85
2022/09/27 08:20:43;;;;;;;14.75;13.05;;;;;;;;;;4317012;33;20642;-85
2022/09/27 08:23:10;;;;;;;15.32;11.88;;;;;;;;;;4317101;33;20526;-86
2022/09/27 08:25:39;;;;;;;15.48;13.48;;;;;;;;;;4319169;33;20235;-87
2022/09/27 08:28:09;;;;;;;13.18;11.80;;;;;;;;;;4317416;33;20616;-86
2022/09/27 08:30:37;;;;;;;22.80;12.55;;;;;;;;;;4317701;33;20648;-84
2022/09/27 08:33:04;;;;;;;20.05;12.05;;;;;;;;;;4317148;33;20620;-87
2022/09/27 08:35:33;;;;;;;14.20;12.77;;;;;;;;;;4316677;33;20658;-84
2022/09/27 08:38:03;;;;;;;15.70;13.55;;;;;;;;;;4316909;33;20523;-84
2022/09/27 08:40:46;;;;;;;13.60;12.23;;;;;;;;;;4316791;33;20602;-84
2022/09/27 08:43:24;;;;;;;19.55;12.35;;;;;;;;;;4318016;33;20548;-85
2022/09/27 08:46:18;;;;;;;12.98;11.68;;;;;;;;;;4317423;33;20535;-86
2022/09/27 08:48:50;;;;;;;10.95;9.40;;;;;;;;;;4318900;33;20636;-85
2022/09/27 08:51:20;;;;;;;11.93;9.20;;;;;;;;;;4317934;33;20588;-87
2022/09/27 08:53:53;;;;;;;10.30;9.30;;;;;;;;;;4318426;33;20208;-85
2022/09/27 08:56:21;;;;;;;15.07;9.73;;;;;;;;;;4316786;33;20578;-84
2022/09/27 08:58:56;;;;;;;15.40;10.68;;;;;;;;;;4317009;33;20636;-85
2022/09/27 09:01:24;;;;;;;10.70;9.15;;;;;;;;;;4317125;33;20226;-86
2022/09/27 09:03:55;;;;;;;12.43;9.40;;;;;;;;;;4317631;33;20565;-84
2022/09/27 09:06:26;;;;;;;11.38;9.82;;;;;;;;;;4317070;33;20683;-85
2022/09/27 09:09:03;;;;;;;12.82;9.73;;;;;;;;;;4317800;33;20211;-85
2022/09/27 09:15:04;;;;;;;10.93;9.55;;;;;;;;;;4317220;33;20252;-85
2022/09/27 09:17:53;;;;;;;11.98;9.93;;;;;;;;;;4317587;33;20574;-84
2022/09/27 09:20:33;;;;;;;12.05;10.10;;;;;;;;;;4316705;33;20581;-86
2022/09/27 09:23:43;;;;;;;11.95;10.23;;;;;;;;;;4317543;33;20526;-86
2022/09/27 09:26:22;;;;;;;12.30;9.30;;;;;;;;;;4318689;33;20577;-86
2022/09/27 09:29:07;;;;;;;10.73;9.65;;;;;;;;;;4317174;33;20564;-85
2022/09/27 09:31:43;;;;;;;11.30;9.77;;;;;;;;;;4318677;33;20353;-85
2022/09/27 09:34:19;;;;;;;10.20;8.93;;;;;;;;;;4320717;33;20605;-88
2022/09/27 09:36:51;;;;;;;10.23;8.00;;;;;;;;;;4320121;33;20644;-84
2022/09/27 09:39:24;;;;;;;9.95;7.95;;;;;;;;;;4319469;33;20562;-84
2022/09/27 09:42:05;;;;;;;14.18;10.05;;;;;;;;;;4319044;33;20573;-85
2022/09/27 09:44:40;;;;;;;13.68;11.52;;;;;;;;;;4322025;33;20199;-85
2022/09/27 09:47:14;;;;;;;11.63;10.30;;;;;;;;;;4332658;33;20237;-85
2022/09/27 09:50:01;;;;;;;15.52;11.65;;;;;;;;;;4330225;33;20273;-83
2022/09/27 09:52:40;;;;;;;12.18;10.20;;;;;;;;;;4329702;33;20211;-84
2022/09/27 09:55:17;;;;;;;10.75;9.65;;;;;;;;;;4331335;33;20267;-85
2022/09/27 09:57:53;;;;;;;10.68;8.80;;;;;;;;;;4330906;33;20645;-84
2022/09/27 10:00:21;;;;;;;8.70;7.70;;;;;;;;;;4331724;33;20594;-84
2022/09/27 10:02:51;;;;;;;9.07;8.18;;;;;;;;;;4326090;33;20200;-84
2022/09/27 10:05:25;;;;;;;8.60;7.57;;;;;;;;;;4324224;33;20211;-85
2022/09/27 10:07:57;;;;;;;9.15;8.15;;;;;;;;;;4325481;33;20580;-89
2022/09/27 10:10:25;;;;;;;10.95;7.90;;;;;;;;;;4321204;33;20625;-84
2022/09/27 10:12:53;;;;;;;8.68;7.78;;;;;;;;;;4318987;33;20553;-83
2022/09/27 10:15:23;;;;;;;9.70;6.35;;;;;;;;;;4318981;33;20281;-80
2022/09/27 10:17:55;;;;;;;7.47;6.20;;;;;;;;;;4318537;33;20409;-83
2022/09/27 10:20:32;;;;;;;8.35;6.47;;;;;;;;;;4318458;33;20558;-85
2022/09/27 10:23:06;;;;;;;8.70;7.82;;;;;;;;;;4319682;33;20613;-84
2022/09/27 10:25:51;;;;;;;7.50;6.72;;;;;;;;;;4318921;33;20557;-85
2022/09/27 10:28:45;;;;;;;7.10;5.60;;;;;;;;;;4320177;33;20656;-85
2022/09/27 10:31:21;;;;;;;6.50;5.78;;;;;;;;;;4318848;33;20656;-85
2022/09/27 10:33:56;;;;;;;9.80;6.62;;;;;;;;;;4319210;33;20304;-86
2022/09/27 10:36:28;;;;;;;7.30;5.75;;;;;;;;;;4318054;33;20553;-80
2022/09/27 10:38:57;;;;;;;7.80;5.53;;;;;;;;;;4318141;33;20605;-80
2022/09/27 10:41:27;;;;;;;7.37;6.40;;;;;;;;;;4317932;33;20545;-80
2022/09/27 10:43:57;;;;;;;6.60;4.87;;;;;;;;;;4317802;33;20693;-80
2022/09/27 10:46:28;;;;;;;5.22;4.70;;;;;;;;;;4318203;33;20709;-80
2022/09/27 10:49:19;;;;;;;6.53;5.57;;;;;;;;;;4317839;33;20617;-80
2022/09/27 10:51:51;;;;;;;7.82;5.65;;;;;;;;;;4317940;33;20601;-81
2022/09/27 10:54:26;;;;;;;7.97;6.78;;;;;;;;;;4317710;33;20543;-80
2022/09/27 10:56:59;;;;;;;8.80;7.90;;;;;;;;;;4317196;33;20558;-79
2022/09/27 10:59:30;;;;;;;9.43;7.35;;;;;;;;;;4317354;33;20608;-79
2022/09/27 11:01:58;;;;;;;9.30;7.03;;;;;;;;;;4317546;33;20604;-79
2022/09/27 11:04:31;;;;;;;7.20;6.50;;;;;;;;;;4317614;33;20537;-83
2022/09/27 11:07:18;;;;;;;8.45;6.37;;;;;;;;;;4317653;33;20580;-80
2022/09/27 11:09:49;;;;;;;7.90;7.10;;;;;;;;;;4318121;33;20605;-79
2022/09/27 11:12:21;;;;;;;13.65;9.43;;;;;;;;;;4317718;33;20393;-80
2022/09/27 11:14:59;;;;;;;10.27;7.32;;;;;;;;;;4318596;33;20633;-79
2022/09/27 11:17:33;;;;;;;10.80;6.90;;;;;;;;;;4317853;33;20566;-79
2022/09/27 11:20:28;;;;;;;6.32;5.72;;;;;;;;;;4317595;33;20596;-79
2022/09/27 11:23:25;;;;;;;8.93;5.07;;;;;;;;;;4310684;33;20384;-80
2022/09/27 11:26:10;;;;;;;6.55;5.93;;;;;;;;;;4317805;33;20271;-80
2022/09/27 11:28:52;;;;;;;6.93;6.22;;;;;;;;;;4317874;33;20614;-84
2022/09/27 11:31:30;;;;;;;7.70;5.50;;;;;;;;;;4318530;33;20573;-83
2022/09/27 11:34:17;;;;;;;7.10;5.90;;;;;;;;;;4318215;33;20302;-84
2022/09/27 11:36:58;;;;;;;5.47;4.43;;;;;;;;;;4302824;33;20620;-84
2022/09/27 11:39:33;;;;;;;6.68;5.10;;;;;;;;;;4318818;33;20653;-83
2022/09/27 11:42:22;;;;;;;5.28;4.78;;;;;;;;;;4318208;33;20613;-83
2022/09/27 11:45:02;;;;;;;5.18;4.07;;;;;;;;;;4317940;33;20578;-83
2022/09/27 11:47:40;;;;;;;7.68;4.53;;;;;;;;;;4318336;33;20654;-84
2022/09/27 11:50:43;;;;;;;6.47;4.53;;;;;;;;;;4318156;33;20566;-85
2022/09/27 11:53:23;;;;;;;6.12;3.95;;;;;;;;;;4308447;33;20553;-84
2022/09/27 11:56:01;;;;;;;4.18;3.62;;;;;;;;;;4317774;33;20589;-84
2022/09/27 11:58:39;;;;;;;6.82;3.42;;;;;;;;;;4317725;33;20662;-84
2022/09/27 12:01:18;;;;;;;7.65;3.67;;;;;;;;;;4317935;33;20615;-85
2022/09/27 12:04:29;;;;;;;3.85;3.37;;;;;;;;;;4317920;33;20638;-84
2022/09/27 12:07:04;;;;;;;5.00;3.40;;;;;;;;;;4317706;33;20613;-84
2022/09/27 12:09:36;;;;;;;7.40;4.05;;;;;;;;;;4317674;33;20510;-84
2022/09/27 12:12:06;;;;;;;4.70;3.42;;;;;;;;;;4317662;33;21658;-84
2022/09/27 12:14:39;;;;;;;5.47;3.42;;;;;;;;;;4318351;33;20325;-84
2022/09/27 12:17:13;;;;;;;8.57;3.50;;;;;;;;;;4317525;33;20557;-85
2022/09/27 12:19:44;;;;;;;5.75;3.60;;;;;;;;;;4317674;33;20538;-84
2022/09/27 12:22:16;;;;;;;7.37;3.60;;;;;;;;;;4318071;33;20669;-84
2022/09/27 12:24:47;;;;;;;6.43;3.92;;;;;;;;;;4317969;33;20629;-84
2022/09/27 12:27:20;;;;;;;5.45;3.10;;;;;;;;;;4317498;33;20580;-84
2022/09/27 12:29:54;;;;;;;5.65;3.20;;;;;;;;;;4317241;33;20565;-85
2022/09/27 12:32:26;;;;;;;3.55;2.40;;;;;;;;;;4317392;33;20548;-83
2022/09/27 12:35:01;;;;;;;3.60;2.35;;;;;;;;;;4317432;33;20233;-85
2022/09/27 12:37:34;;;;;;;3.37;2.47;;;;;;;;;;4304923;33;20655;-84
2022/09/27 12:40:09;;;;;;;3.35;2.62;;;;;;;;;;4317921;33;20546;-84
2022/09/27 12:42:41;;;;;;;3.42;2.37;;;;;;;;;;4317427;33;20738;-84
2022/09/27 12:45:14;;;;;;;6.60;3.20;;;;;;;;;;4317877;33;20633;-84
2022/09/27 12:47:56;;;;;;;13.18;2.78;;;;;;;;;;4317796;33;20273;-83
2022/09/27 12:50:30;;;;;;;3.12;2.15;;;;;;;;;;4317596;33;20604;-84
2022/09/27 12:53:04;;;;;;;4.05;1.85;;;;;;;;;;4317465;33;20588;-84
2022/09/27 12:55:59;;;;;;;1.70;1.10;;;;;;;;;;4318010;33;20533;-84
2022/09/27 12:58:56;;;;;;;4.37;1.58;;;;;;;;;;4316223;33;20629;-84
2022/09/27 13:01:39;;;;;;;5.62;1.08;;;;;;;;;;4315532;33;20308;-84
2022/09/27 13:04:24;;;;;;;1.40;1.02;;;;;;;;;;4317038;33;20647;-84
2022/09/27 13:07:03;;;;;;;3.28;1.08;;;;;;;;;;4319899;33;20585;-84
2022/09/27 13:10:05;;;;;;;5.97;1.45;;;;;;;;;;4320100;33;20598;-84
2022/09/27 13:12:37;;;;;;;2.85;1.27;;;;;;;;;;4318870;33;20604;-84
2022/09/27 13:15:07;;;;;;;1.48;1.02;;;;;;;;;;4319887;33;20648;-84
2022/09/27 13:17:52;;;;;;;1.30;1.20;;;;;;;;;;4319557;33;20564;-84
2022/09/27 13:20:54;;;;;;;3.10;1.20;;;;;;;;;;4319942;33;20545;-83
2022/09/27 13:23:50;;;;;;;1.10;0.95;;;;;;;;;;4319894;33;20605;-84
2022/09/27 13:26:47;;;;;;;3.53;1.27;;;;;;;;;;4292727;33;20667;-83
2022/09/27 13:29:32;;;;;;;4.95;1.50;;;;;;;;;;4317066;33;20584;-84
2022/09/27 13:32:27;;;;;;;2.87;1.48;;;;;;;;;;4320260;33;20259;-84
2022/09/27 13:35:10;;;;;;;1.77;1.00;;;;;;;;;;4320481;33;20598;-84
2022/09/27 13:37:54;;;;;;;3.08;1.17;;;;;;;;;;4319600;33;20697;-84
2022/09/27 13:40:32;;;;;;;8.30;1.48;;;;;;;;;;4320240;33;20623;-85
2022/09/27 13:43:20;;;;;;;2.03;0.88;;;;;;;;;;4319784;33;20565;-84
2022/09/27 13:45:55;;;;;;;1.15;1.05;;;;;;;;;;4319625;33;20664;-84
2022/09/27 13:48:29;;;;;;;2.83;1.08;;;;;;;;;;4319539;33;20262;-84
2022/09/27 13:51:02;;;;;;;4.87;2.42;;;;;;;;;;4319644;33;20589;-84
2022/09/27 13:53:33;;;;;;;3.72;1.70;;;;;;;;;;4319626;33;20671;-83
2022/09/27 13:56:01;;;;;;;3.33;1.10;;;;;;;;;;4319554;33;20557;-83
2022/09/27 13:58:49;;;;;;;8.10;1.10;;;;;;;;;;4319170;33;20282;-83
2022/09/27 14:01:22;;;;;;;2.72;1.30;;;;;;;;;;4319288;33;20619;-84
2022/09/27 14:03:52;;;;;;;2.58;1.20;;;;;;;;;;4319304;33;20321;-84
2022/09/27 14:06:26;;;;;;;7.47;1.45;;;;;;;;;;4319274;33;20523;-84
2022/09/27 14:08:58;;;;;;;3.80;1.27;;;;;;;;;;4319285;33;20624;-84
2022/09/27 14:11:28;;;;;;;3.80;1.50;;;;;;;;;;4319281;33;20553;-84
2022/09/27 14:13:57;;;;;;;3.20;1.23;;;;;;;;;;4319235;33;20565;-84
2022/09/27 14:16:29;;;;;;;2.83;1.50;;;;;;;;;;4318475;33;20537;-83
2022/09/27 14:18:58;;;;;;;3.42;1.20;;;;;;;;;;4319061;33;20568;-83
2022/09/27 14:21:36;;;;;;;9.85;1.73;;;;;;;;;;4319117;33;20581;-81
2022/09/27 14:24:25;;;;;;;3.17;1.23;;;;;;;;;;4319047;33;20573;-81
2022/09/27 14:27:06;;;;;;;2.95;1.20;;;;;;;;;;4319103;33;20627;-81
2022/09/27 14:29:40;;;;;;;4.85;1.33;;;;;;;;;;4318844;33;20361;-83
2022/09/27 14:32:12;;;;;;;2.17;1.40;;;;;;;;;;4318602;33;20560;-81
2022/09/27 14:34:40;;;;;;;3.33;1.87;;;;;;;;;;4319149;33;20605;-80
2022/09/27 14:37:25;;;;;;;8.77;1.48;;;;;;;;;;4318510;33;20546;-83
2022/09/27 14:40:04;;;;;;;2.37;1.10;;;;;;;;;;4318674;33;20586;-82
2022/09/27 14:42:35;;;;;;;5.70;1.60;;;;;;;;;;4318794;33;20572;-81
2022/09/27 14:45:13;;;;;;;2.12;1.50;;;;;;;;;;4318689;33;20553;-84
2022/09/27 14:47:47;;;;;;;4.18;1.20;;;;;;;;;;4318527;33;20542;-81
2022/09/27 14:50:20;;;;;;;1.73;1.20;;;;;;;;;;4318662;33;20549;-82
2022/09/27 14:52:51;;;;;;;3.05;1.50;;;;;;;;;;4318505;33;20659;-81
2022/09/27 14:55:20;;;;;;;3.08;1.37;;;;;;;;;;4318229;33;20610;-82
2022/09/27 14:57:50;;;;;;;2.35;1.50;;;;;;;;;;4318222;33;20599;-82
2022/09/27 15:00:21;;;;;;;5.25;1.15;;;;;;;;;;4318398;33;20727;-81
2022/09/27 15:02:53;;;;;;;4.37;1.40;;;;;;;;;;4319215;33;20791;-83
2022/09/27 15:05:23;;;;;;;3.17;1.37;;;;;;;;;;4321071;33;20581;-81
2022/09/27 15:07:54;;;;;;;3.05;2.00;;;;;;;;;;4318243;33;20669;-84
2022/09/27 15:10:26;;;;;;;6.90;1.60;;;;;;;;;;4305585;33;20653;-84
2022/09/27 15:12:58;;;;;;;7.62;1.70;;;;;;;;;;4318355;33;20630;-81
2022/09/27 15:15:30;;;;;;;8.35;2.00;;;;;;;;;;4317986;33;20574;-81
2022/09/27 15:17:58;;;;;;;2.12;1.62;;;;;;;;;;4317849;33;20527;-81
2022/09/27 15:20:27;;;;;;;2.92;1.58;;;;;;;;;;4317963;33;20591;-81